createdAt,value
2023-05-12T00:00:26.014Z,61.60
2023-05-12T00:02:53.228Z,61.20
2023-05-12T00:05:20.262Z,61.30
2023-05-12T00:07:47.495Z,60.80
2023-05-12T00:10:14.712Z,60.90
2023-05-12T00:12:42.436Z,60.90
2023-05-12T00:15:09.932Z,62.00
2023-05-12T00:17:37.098Z,62.70
2023-05-12T00:20:04.420Z,63.70
2023-05-12T00:22:31.851Z,63.80
2023-05-12T00:24:58.954Z,64.00
2023-05-12T00:27:27.234Z,64.10
2023-05-12T00:29:54.155Z,64.10
2023-05-12T00:32:21.514Z,64.30
2023-05-12T00:34:50.388Z,64.40
2023-05-12T00:37:17.655Z,64.50
2023-05-12T00:39:44.656Z,65.20
2023-05-12T00:42:12.328Z,65.80
2023-05-12T00:44:39.487Z,65.20
2023-05-12T00:47:06.841Z,63.30
2023-05-12T00:49:33.802Z,62.90
2023-05-12T00:52:02.535Z,63.10
2023-05-12T00:54:30.484Z,63.10
2023-05-12T00:56:57.768Z,63.20
2023-05-12T00:59:25.086Z,63.80
2023-05-12T01:01:52.238Z,64.90
2023-05-12T01:04:19.181Z,65.20
2023-05-12T01:06:56.278Z,65.00
2023-05-12T01:09:23.536Z,64.90
2023-05-12T01:11:51.661Z,65.70
2023-05-12T01:14:19.327Z,66.10
2023-05-12T01:16:50.172Z,67.00
2023-05-12T01:19:29.866Z,67.60
2023-05-12T01:21:57.691Z,67.30
2023-05-12T01:24:27.554Z,67.30
2023-05-12T01:26:55.072Z,67.90
2023-05-12T01:29:22.403Z,67.90
2023-05-12T01:31:49.898Z,67.90
2023-05-12T01:34:18.695Z,68.00
2023-05-12T01:36:49.487Z,68.00
2023-05-12T01:39:16.731Z,68.10
2023-05-12T01:41:44.387Z,68.20
2023-05-12T01:44:11.786Z,68.40
2023-05-12T01:46:39.881Z,68.90
2023-05-12T01:49:07.221Z,69.10
2023-05-12T01:51:34.640Z,69.00
2023-05-12T01:57:14.446Z,70.00
2023-05-12T01:59:42.206Z,69.70
2023-05-12T02:02:09.572Z,69.70
2023-05-12T02:04:37.679Z,70.00
2023-05-12T02:07:05.004Z,70.30
2023-05-12T02:09:32.052Z,70.70
2023-05-12T02:12:03.370Z,71.80
2023-05-12T02:14:30.468Z,72.40
2023-05-12T02:16:59.241Z,72.50
2023-05-12T02:19:26.297Z,72.40
2023-05-12T02:21:53.643Z,72.40
2023-05-12T02:24:21.846Z,72.80
2023-05-12T02:26:49.782Z,72.70
2023-05-12T02:29:17.246Z,72.90
2023-05-12T02:31:44.254Z,73.10
2023-05-12T02:34:16.172Z,75.00
2023-05-12T02:36:43.485Z,75.40
2023-05-12T02:39:12.218Z,75.30
2023-05-12T02:41:39.547Z,75.90
2023-05-12T02:44:06.909Z,76.10
2023-05-12T02:46:34.331Z,76.00
2023-05-12T02:49:01.666Z,76.10
2023-05-12T02:51:29.548Z,76.40
2023-05-12T02:53:56.946Z,76.30
2023-05-12T02:56:23.982Z,76.70
2023-05-12T02:58:51.312Z,76.50
2023-05-12T03:01:18.356Z,76.70
2023-05-12T03:03:45.957Z,77.10
2023-05-12T03:06:13.064Z,78.40
2023-05-12T03:08:41.283Z,79.20
2023-05-12T03:11:08.322Z,80.20
2023-05-12T03:13:35.647Z,81.50
2023-05-12T03:16:02.738Z,81.50
2023-05-12T03:18:31.453Z,81.80
2023-05-12T03:20:58.566Z,81.60
2023-05-12T03:23:25.884Z,80.80
2023-05-12T03:25:52.952Z,79.50
2023-05-12T03:28:20.160Z,80.30
2023-05-12T03:30:47.225Z,80.50
2023-05-12T03:33:14.412Z,79.90
2023-05-12T03:35:41.766Z,79.40
2023-05-12T03:38:09.093Z,79.20
2023-05-12T03:40:36.934Z,78.70
2023-05-12T03:43:04.222Z,77.30
2023-05-12T03:45:31.180Z,79.10
2023-05-12T03:47:58.481Z,79.10
2023-05-12T03:50:27.545Z,77.70
2023-05-12T03:52:56.261Z,75.30
2023-05-12T03:55:23.324Z,76.40
2023-05-12T03:57:51.825Z,75.20
2023-05-12T04:00:19.402Z,74.70
2023-05-12T04:02:47.422Z,73.10
2023-05-12T04:05:14.639Z,73.90
2023-05-12T04:07:42.492Z,73.00
2023-05-12T04:10:09.653Z,72.70
2023-05-12T04:12:36.872Z,71.60
2023-05-12T04:15:04.412Z,72.20
2023-05-12T04:17:32.033Z,70.80
2023-05-12T04:19:59.066Z,70.60
2023-05-12T04:22:26.376Z,70.30
2023-05-12T04:24:54.142Z,70.40
2023-05-12T04:27:21.847Z,69.60
2023-05-12T04:29:49.109Z,68.70
2023-05-12T04:32:17.024Z,67.50
2023-05-12T04:34:44.278Z,67.00
2023-05-12T04:37:11.269Z,65.90
2023-05-12T04:39:38.401Z,65.70
2023-05-12T04:42:08.609Z,64.60
2023-05-12T04:44:36.106Z,64.40
2023-05-12T04:47:03.048Z,64.50
2023-05-12T04:49:33.518Z,64.40
2023-05-12T04:52:00.620Z,64.50
2023-05-12T04:54:28.233Z,64.30
2023-05-12T04:56:56.002Z,64.20
2023-05-12T04:59:23.196Z,63.60
2023-05-12T05:01:52.584Z,63.40
2023-05-12T05:04:21.024Z,63.00
2023-05-12T05:06:47.967Z,63.10
2023-05-12T05:09:15.726Z,62.20
2023-05-12T05:11:42.975Z,61.50
2023-05-12T05:14:10.198Z,60.70
2023-05-12T05:16:37.312Z,59.70
2023-05-12T05:19:06.737Z,59.20
2023-05-12T05:21:39.295Z,58.70
2023-05-12T05:24:08.512Z,58.30
2023-05-12T05:26:36.161Z,57.60
2023-05-12T05:29:04.880Z,57.40
2023-05-12T05:31:32.556Z,57.30
2023-05-12T05:33:59.748Z,57.20
2023-05-12T05:36:27.019Z,56.70
2023-05-12T05:38:54.388Z,57.00
2023-05-12T05:41:22.902Z,56.50
2023-05-12T05:43:50.391Z,56.60
2023-05-12T05:46:17.363Z,56.20
2023-05-12T05:48:59.654Z,56.30
2023-05-12T05:51:27.413Z,56.40
2023-05-12T05:53:54.489Z,56.60
2023-05-12T05:56:23.162Z,56.70
2023-05-12T05:58:50.918Z,56.70
2023-05-12T06:01:17.920Z,56.80
2023-05-12T06:03:45.393Z,56.60
2023-05-12T06:06:12.397Z,56.30
2023-05-12T06:08:39.471Z,56.70
2023-05-12T06:11:06.484Z,56.10
2023-05-12T06:13:33.866Z,55.90
2023-05-12T06:16:00.962Z,55.00
2023-05-12T06:18:29.035Z,54.40
2023-05-12T06:20:56.040Z,53.60
2023-05-12T06:23:23.085Z,53.70
2023-05-12T06:25:50.670Z,53.40
2023-05-12T06:28:18.010Z,53.20
2023-05-12T06:30:46.095Z,52.90
2023-05-12T06:33:13.290Z,52.50
2023-05-12T06:35:40.349Z,52.20
2023-05-12T06:38:07.539Z,51.70
2023-05-12T06:40:34.474Z,51.50
2023-05-12T06:43:01.830Z,51.20
2023-05-12T06:45:29.011Z,51.20
2023-05-12T06:47:58.446Z,50.80
2023-05-12T06:50:27.609Z,50.30
2023-05-12T06:52:55.895Z,49.60
2023-05-12T06:55:24.998Z,50.20
2023-05-12T06:57:56.364Z,48.70
2023-05-12T07:00:25.982Z,47.30
2023-05-12T07:02:55.781Z,48.60
2023-05-12T07:05:23.864Z,46.80
2023-05-12T07:07:51.045Z,46.70
2023-05-12T07:10:18.119Z,46.40
2023-05-12T07:12:45.462Z,46.50
2023-05-12T07:15:12.418Z,46.70
2023-05-12T07:34:54.561Z,41.60
2023-05-12T07:37:21.543Z,42.70
2023-05-12T07:39:48.777Z,41.70
2023-05-12T07:42:15.897Z,40.80
2023-05-12T07:44:43.132Z,39.00
2023-05-12T07:47:10.152Z,40.60
2023-05-12T07:49:37.359Z,45.00
2023-05-12T07:52:04.569Z,41.40
2023-05-12T07:54:32.352Z,40.70
2023-05-12T07:56:59.331Z,39.90
2023-05-12T07:59:26.575Z,38.70
2023-05-12T08:01:54.076Z,38.10
2023-05-12T08:04:21.537Z,38.10
2023-05-12T08:06:48.495Z,40.10
2023-05-12T08:09:15.740Z,39.80
2023-05-12T08:11:45.414Z,39.30
2023-05-12T08:14:13.818Z,40.40
2023-05-12T08:16:41.127Z,36.90
2023-05-12T08:19:08.536Z,39.30
2023-05-12T08:21:35.779Z,37.30
2023-05-12T08:24:03.053Z,39.00
2023-05-12T08:26:32.748Z,38.60
2023-05-12T08:29:00.148Z,35.40
2023-05-12T08:31:27.488Z,38.20
2023-05-12T08:36:26.490Z,38.10
2023-05-12T08:38:53.489Z,38.50
2023-05-12T08:41:25.603Z,35.50
2023-05-12T08:43:52.974Z,39.40
2023-05-12T08:46:20.294Z,38.80
2023-05-12T08:48:50.420Z,37.50
2023-05-12T08:51:18.330Z,39.20
2023-05-12T08:53:47.301Z,36.10
2023-05-12T08:58:47.308Z,35.70
2023-05-12T09:01:15.173Z,36.80
2023-05-12T09:03:42.546Z,31.50
2023-05-12T09:06:11.546Z,34.30
2023-05-12T09:08:39.303Z,34.30
2023-05-12T09:13:40.516Z,34.80
2023-05-12T09:16:08.215Z,33.40
2023-05-12T09:18:52.090Z,33.70
2023-05-12T09:21:19.396Z,32.50
2023-05-12T09:23:57.291Z,32.30
2023-05-12T09:26:25.343Z,30.00
2023-05-12T09:28:53.626Z,31.50
2023-05-12T09:31:22.778Z,32.40
2023-05-12T09:33:51.096Z,31.60
2023-05-12T09:36:18.723Z,32.30
2023-05-12T09:38:46.085Z,32.60
2023-05-12T09:41:13.199Z,29.90
2023-05-12T09:43:44.898Z,30.90
2023-05-12T09:46:11.970Z,29.80
2023-05-12T09:48:39.347Z,30.10
2023-05-12T09:51:09.984Z,29.00
2023-05-12T09:53:42.714Z,28.20
2023-05-12T09:56:11.423Z,30.00
2023-05-12T09:58:40.565Z,28.50
2023-05-12T10:01:21.790Z,30.00
2023-05-12T10:03:57.540Z,29.40
2023-05-12T10:06:28.626Z,29.50
2023-05-12T10:09:16.608Z,29.70
2023-05-12T10:11:44.312Z,27.90
2023-05-12T10:14:13.538Z,28.60
2023-05-12T10:16:41.353Z,28.50
2023-05-12T10:19:09.869Z,27.90
2023-05-12T10:21:37.676Z,29.20
2023-05-12T10:24:05.222Z,28.00
2023-05-12T10:26:37.682Z,28.30
2023-05-12T10:29:04.943Z,28.60
2023-05-12T10:31:34.702Z,27.90
2023-05-12T10:34:02.786Z,27.10
2023-05-12T10:36:29.912Z,28.60
2023-05-12T10:39:04.437Z,27.60
2023-05-12T10:41:35.196Z,27.70
2023-05-12T10:44:02.524Z,27.30
2023-05-12T10:46:30.712Z,29.30
2023-05-12T10:49:05.095Z,27.60
2023-05-12T10:51:33.572Z,28.70
2023-05-12T10:54:01.668Z,29.20
2023-05-12T10:56:29.932Z,28.90
2023-05-12T10:59:07.447Z,28.10
2023-05-12T11:01:35.522Z,30.00
2023-05-12T11:04:20.344Z,29.90
2023-05-12T11:06:57.765Z,29.20
2023-05-12T11:09:25.410Z,28.60
2023-05-12T11:11:52.560Z,29.20
2023-05-12T11:14:20.588Z,29.10
2023-05-12T11:16:47.622Z,28.60
2023-05-12T11:19:14.821Z,28.90
2023-05-12T11:21:42.024Z,26.70
2023-05-12T11:24:13.489Z,29.00
2023-05-12T11:26:41.485Z,27.50
2023-05-12T11:29:09.637Z,27.90
2023-05-12T11:31:36.783Z,27.90
2023-05-12T11:34:11.931Z,27.80
2023-05-12T11:36:44.156Z,27.60
2023-05-12T11:39:18.604Z,29.50
2023-05-12T11:41:46.045Z,28.80
2023-05-12T11:44:17.612Z,29.50
2023-05-12T11:46:57.578Z,28.00
2023-05-12T11:49:25.406Z,29.20
2023-05-12T11:51:53.763Z,28.90
2023-05-12T11:54:21.217Z,27.50
2023-05-12T11:56:49.511Z,28.40
2023-05-12T11:59:37.409Z,27.70
2023-05-12T12:02:04.743Z,28.30
2023-05-12T12:04:41.923Z,29.10
2023-05-12T12:07:09.790Z,29.00
2023-05-12T12:09:38.070Z,27.70
2023-05-12T12:12:05.856Z,27.80
2023-05-12T12:14:33.464Z,27.70
2023-05-12T12:17:00.552Z,28.20
2023-05-12T12:19:28.538Z,29.00
2023-05-12T12:21:56.271Z,30.00
2023-05-12T12:24:23.671Z,29.60
2023-05-12T12:26:50.883Z,28.10
2023-05-12T12:29:18.054Z,29.20
2023-05-12T12:31:45.072Z,30.20
2023-05-12T12:34:12.307Z,29.10
2023-05-12T12:36:39.301Z,30.30
2023-05-12T12:39:06.277Z,30.80
2023-05-12T12:41:33.620Z,29.80
2023-05-12T12:44:00.874Z,30.10
2023-05-12T12:46:27.873Z,30.00
2023-05-12T12:48:57.381Z,31.10
2023-05-12T12:51:26.857Z,32.90
2023-05-12T12:53:59.896Z,33.80
2023-05-12T12:56:26.899Z,32.70
2023-05-12T12:58:53.872Z,32.80
2023-05-12T13:01:20.910Z,33.80
2023-05-12T13:03:48.082Z,32.70
2023-05-12T13:06:15.326Z,33.60
2023-05-12T13:08:42.876Z,32.70
2023-05-12T13:11:09.946Z,32.40
2023-05-12T13:13:38.156Z,32.30
2023-05-12T13:16:05.250Z,31.90
2023-05-12T13:18:32.292Z,32.00
2023-05-12T13:20:59.782Z,32.60
2023-05-12T13:23:26.884Z,34.00
2023-05-12T13:25:54.070Z,32.60
2023-05-12T13:28:20.972Z,32.00
2023-05-12T13:30:49.508Z,32.90
2023-05-12T13:33:16.988Z,32.70
2023-05-12T13:35:44.231Z,32.20
2023-05-12T13:38:11.444Z,33.80
2023-05-12T13:40:38.554Z,32.80
2023-05-12T13:43:05.504Z,32.00
2023-05-12T13:45:32.505Z,33.20
2023-05-12T13:47:59.672Z,33.90
2023-05-12T13:50:38.781Z,32.90
2023-05-12T13:53:06.875Z,32.80
2023-05-12T13:55:40.644Z,33.50
2023-05-12T13:58:08.127Z,32.80
2023-05-12T14:00:35.478Z,34.00
2023-05-12T14:03:02.712Z,33.30
2023-05-12T14:05:30.060Z,33.10
2023-05-12T14:07:57.018Z,33.20
2023-05-12T14:10:25.303Z,33.20
2023-05-12T14:12:53.032Z,33.60
2023-05-12T14:15:32.255Z,33.30
2023-05-12T14:18:03.902Z,33.20
2023-05-12T14:20:31.100Z,33.20
2023-05-12T14:22:58.094Z,33.40
2023-05-12T14:25:25.557Z,33.10
2023-05-12T14:27:52.563Z,32.90
2023-05-12T14:37:44.666Z,32.40
2023-05-12T14:40:12.451Z,33.30
2023-05-12T14:42:39.808Z,33.80
2023-05-12T14:45:08.132Z,35.40
2023-05-12T14:47:35.311Z,33.80
2023-05-12T14:50:02.521Z,34.20
2023-05-12T14:52:29.712Z,33.50
2023-05-12T14:54:57.187Z,33.70
2023-05-12T14:57:24.732Z,34.00
2023-05-12T14:59:56.413Z,34.00
2023-05-12T15:02:23.556Z,34.00
2023-05-12T15:04:50.824Z,34.10
2023-05-12T15:07:18.300Z,34.10
2023-05-12T15:09:45.965Z,34.30
2023-05-12T15:12:13.176Z,34.30
2023-05-12T15:14:40.379Z,34.10
2023-05-12T15:17:07.739Z,34.10
2023-05-12T15:19:35.396Z,34.10
2023-05-12T15:22:02.296Z,34.50
2023-05-12T15:24:29.538Z,34.50
2023-05-12T15:26:56.608Z,34.70
2023-05-12T15:29:24.142Z,34.90
2023-05-12T15:31:51.366Z,35.20
2023-05-12T15:34:18.476Z,34.60
2023-05-12T15:36:45.849Z,34.90
2023-05-12T15:39:13.516Z,35.00
2023-05-12T15:41:40.536Z,35.00
2023-05-12T15:44:07.719Z,34.80
2023-05-12T15:46:35.854Z,35.00
2023-05-12T15:49:03.156Z,35.10
2023-05-12T15:51:30.119Z,35.30
2023-05-12T15:53:57.188Z,35.50
2023-05-12T15:56:24.681Z,35.30
2023-05-12T15:58:51.657Z,35.40
2023-05-12T16:01:18.700Z,35.30
2023-05-12T16:03:46.035Z,35.80
2023-05-12T16:06:13.402Z,35.60
2023-05-12T16:08:40.504Z,35.70
2023-05-12T16:11:07.861Z,35.20
2023-05-12T16:13:35.198Z,35.40
2023-05-12T16:16:02.779Z,35.60
2023-05-12T16:18:32.846Z,35.70
2023-05-12T16:21:01.809Z,35.60
2023-05-12T16:23:28.827Z,35.70
2023-05-12T16:25:57.400Z,36.00
2023-05-12T16:28:24.375Z,36.40
2023-05-12T16:30:51.549Z,36.50
2023-05-12T16:33:18.552Z,36.20
2023-05-12T16:35:45.827Z,36.20
2023-05-12T16:38:13.594Z,36.10
2023-05-12T16:40:40.688Z,36.20
2023-05-12T16:43:07.960Z,36.50
2023-05-12T16:45:36.014Z,36.50
2023-05-12T16:48:03.271Z,36.50
2023-05-12T16:50:32.272Z,36.50
2023-05-12T16:52:59.264Z,36.60
2023-05-12T16:55:26.684Z,36.10
2023-05-12T16:57:53.745Z,36.20
2023-05-12T17:00:21.157Z,36.50
2023-05-12T17:02:48.182Z,36.50
2023-05-12T17:05:17.558Z,36.60
2023-05-12T17:07:44.527Z,36.90
2023-05-12T17:10:11.933Z,37.10
2023-05-12T17:12:39.394Z,37.10
2023-05-12T17:15:10.109Z,36.70
2023-05-12T17:17:37.125Z,37.40
2023-05-12T17:20:05.224Z,37.00
2023-05-12T17:22:32.655Z,36.80
2023-05-12T17:24:59.864Z,36.90
2023-05-12T17:27:26.809Z,37.00
2023-05-12T17:29:53.870Z,37.00
2023-05-12T17:32:21.022Z,37.00
2023-05-12T17:34:49.456Z,37.50
2023-05-12T17:37:16.758Z,37.70
2023-05-12T17:39:44.517Z,37.60
2023-05-12T17:42:11.869Z,37.80
2023-05-12T17:44:38.844Z,38.00
2023-05-12T17:47:06.703Z,38.10
2023-05-12T17:49:33.873Z,38.20
2023-05-12T17:52:00.957Z,38.50
2023-05-12T17:54:28.111Z,38.50
2023-05-12T17:56:55.424Z,38.60
2023-05-12T17:59:22.637Z,38.80
2023-05-12T18:01:50.031Z,39.00
2023-05-12T18:04:17.178Z,39.10
2023-05-12T18:06:44.841Z,39.20
2023-05-12T18:09:12.014Z,39.30
2023-05-12T18:11:39.809Z,39.40
2023-05-12T18:14:09.536Z,39.60
2023-05-12T18:16:37.306Z,39.60
2023-05-12T18:19:04.500Z,39.80
2023-05-12T18:21:32.786Z,40.10
2023-05-12T18:23:59.916Z,40.10
2023-05-12T18:26:27.627Z,40.40
2023-05-12T18:28:54.731Z,40.80
2023-05-12T18:31:22.103Z,40.90
2023-05-12T18:33:49.737Z,42.00
2023-05-12T18:36:17.452Z,42.80
2023-05-12T18:38:44.728Z,43.70
2023-05-12T18:41:12.270Z,44.30
2023-05-12T18:43:39.324Z,44.60
2023-05-12T18:46:07.727Z,44.50
2023-05-12T18:48:34.953Z,44.40
2023-05-12T18:51:02.063Z,44.70
2023-05-12T18:53:29.330Z,44.80
2023-05-12T18:55:56.607Z,44.30
2023-05-12T18:58:23.538Z,44.50
2023-05-12T19:03:18.432Z,44.30
2023-05-12T19:05:46.453Z,45.60
2023-05-12T19:08:13.565Z,45.80
2023-05-12T19:10:40.692Z,46.30
2023-05-12T19:13:10.757Z,47.00
2023-05-12T19:15:38.096Z,47.20
2023-05-12T19:18:08.203Z,47.70
2023-05-12T19:20:36.544Z,48.20
2023-05-12T19:23:03.574Z,48.70
2023-05-12T19:25:30.946Z,49.40
2023-05-12T19:27:57.965Z,49.90
2023-05-12T19:30:26.928Z,50.40
2023-05-12T19:32:54.110Z,50.90
2023-05-12T19:35:22.756Z,51.40
2023-05-12T19:37:50.182Z,51.80
2023-05-12T19:40:17.494Z,52.10
2023-05-12T19:42:44.699Z,52.50
2023-05-12T19:45:11.862Z,53.10
2023-05-12T19:47:39.433Z,53.30
2023-05-12T19:50:06.871Z,53.60
2023-05-12T19:52:34.527Z,54.10
2023-05-12T19:55:01.524Z,54.80
2023-05-12T19:57:31.398Z,55.30
2023-05-12T19:59:58.472Z,55.80
2023-05-12T20:02:30.903Z,56.10
2023-05-12T20:05:01.459Z,56.40
2023-05-12T20:07:28.785Z,56.50
2023-05-12T20:09:55.871Z,56.50
2023-05-12T20:12:22.892Z,56.50
2023-05-12T20:14:50.129Z,56.40
2023-05-12T20:17:17.427Z,56.30
2023-05-12T20:19:44.519Z,56.10
2023-05-12T20:22:13.018Z,56.20
2023-05-12T20:24:40.102Z,56.20
2023-05-12T20:27:07.909Z,56.10
2023-05-12T20:29:34.933Z,55.90
2023-05-12T20:32:02.159Z,55.80
2023-05-12T20:34:29.983Z,55.60
2023-05-12T20:36:57.671Z,55.50
2023-05-12T20:39:24.689Z,55.50
2023-05-12T20:41:51.996Z,55.10
2023-05-12T20:44:20.125Z,55.20
2023-05-12T20:46:47.198Z,55.30
2023-05-12T20:49:14.407Z,55.20
2023-05-12T20:51:41.471Z,55.30
2023-05-12T20:54:08.483Z,55.30
2023-05-12T20:56:36.763Z,55.20
2023-05-12T20:59:03.741Z,55.00
2023-05-12T21:01:31.032Z,55.00
2023-05-12T21:03:58.045Z,55.00
2023-05-12T21:06:25.321Z,55.10
2023-05-12T21:08:52.402Z,55.00
2023-05-12T21:11:19.701Z,55.00
2023-05-12T21:13:48.360Z,55.10
2023-05-12T21:16:16.514Z,55.30
2023-05-12T21:18:43.908Z,55.40
2023-05-12T21:21:11.380Z,55.50
2023-05-12T21:23:38.384Z,55.50
2023-05-12T21:26:05.584Z,55.60
2023-05-12T21:28:32.584Z,55.60
2023-05-12T21:30:59.792Z,55.80
2023-05-12T21:33:26.864Z,55.70
2023-05-12T21:35:54.126Z,55.70
2023-05-12T21:38:21.199Z,55.60
2023-05-12T21:40:49.063Z,55.50
2023-05-12T21:43:15.976Z,55.60
2023-05-12T21:45:43.156Z,55.60
2023-05-12T21:48:10.275Z,55.70
2023-05-12T21:50:37.308Z,55.90
2023-05-12T21:53:05.531Z,56.00
2023-05-12T21:55:32.741Z,55.90
2023-05-12T21:58:00.307Z,55.90
2023-05-12T22:00:27.695Z,56.00
2023-05-12T22:02:55.077Z,55.80
2023-05-12T22:05:22.128Z,56.00
2023-05-12T22:07:49.274Z,55.80
2023-05-12T22:10:16.363Z,55.80
2023-05-12T22:12:43.729Z,56.00
2023-05-12T22:15:10.920Z,56.10
2023-05-12T22:17:38.137Z,56.30
2023-05-12T22:20:05.754Z,56.50
2023-05-12T22:22:33.154Z,56.70
2023-05-12T22:25:00.290Z,56.90
2023-05-12T22:27:27.347Z,57.20
2023-05-12T22:29:55.762Z,57.50
2023-05-12T22:32:23.314Z,57.80
2023-05-12T22:34:52.447Z,58.00
2023-05-12T22:37:19.719Z,58.20
2023-05-12T22:39:46.801Z,58.50
2023-05-12T22:42:13.991Z,58.50
2023-05-12T22:44:40.962Z,58.00
2023-05-12T22:47:08.521Z,57.50
2023-05-12T22:49:35.751Z,57.30
2023-05-12T22:52:02.871Z,57.10
2023-05-12T22:54:29.875Z,57.20
2023-05-12T22:56:57.031Z,57.40
2023-05-12T22:59:24.049Z,57.40
2023-05-12T23:01:51.169Z,57.50
2023-05-12T23:04:18.164Z,57.50
2023-05-12T23:06:45.609Z,57.40
2023-05-12T23:09:12.559Z,57.10
2023-05-12T23:11:39.751Z,57.00
2023-05-12T23:14:06.736Z,56.90
2023-05-12T23:16:33.809Z,56.70
2023-05-12T23:19:00.916Z,56.70
2023-05-12T23:23:55.558Z,57.40
2023-05-12T23:26:22.776Z,58.20
2023-05-12T23:28:50.200Z,58.60
2023-05-12T23:31:17.485Z,59.00
2023-05-12T23:33:44.632Z,59.30
2023-05-12T23:36:13.632Z,59.60
2023-05-12T23:38:40.820Z,60.10
2023-05-12T23:41:08.048Z,60.20
2023-05-12T23:43:35.176Z,60.40
2023-05-12T23:46:02.458Z,60.50
2023-05-12T23:48:30.323Z,60.70
2023-05-12T23:50:57.335Z,61.00
2023-05-12T23:53:24.664Z,61.00
2023-05-12T23:55:51.640Z,61.60
2023-05-12T23:58:18.696Z,61.90
